Terminal Aerodrome Forecast
Issued by NWS

Home | Current Version | Previous Version | Graphics & Text | Print | Product List | Glossary Off
Versions: 1 2 3 4 5 6 7 8 9 10 11 12 13 14 15 16 17

000
FTUS43 KOAX 011727
TAFCDR
TAF
KCDR 011727Z 0118/0218 01009KT 5SM -SN BKN024 OVC035
     FM012000 34008KT P6SM BKN035
     FM020000 VRB03KT P6SM SCT250=

USA.gov is the U.S. government's official web portal to all federal, state and local government web resources and services.